sensor_id;sensor_type;location;lat;lon;timestamp;pressure;altitude;pressure_sealevel;temperature;humidity
62800;BME280;48842;51.046;13.796;2023-08-07T00:00:24;99115.75;;;19.14;65.48
62800;BME280;48842;51.046;13.796;2023-08-07T00:02:50;99122.78;;;19.15;65.43
62800;BME280;48842;51.046;13.796;2023-08-07T00:05:15;99121.06;;;19.14;65.31
62800;BME280;48842;51.046;13.796;2023-08-07T00:07:42;99121.22;;;19.11;65.59
62800;BME280;48842;51.046;13.796;2023-08-07T00:10:07;99122.16;;;19.10;65.39
62800;BME280;48842;51.046;13.796;2023-08-07T00:12:33;99128.50;;;19.07;65.43
62800;BME280;48842;51.046;13.796;2023-08-07T00:14:58;99127.63;;;19.07;65.47
62800;BME280;48842;51.046;13.796;2023-08-07T00:17:23;99135.81;;;19.02;65.66
62800;BME280;48842;51.046;13.796;2023-08-07T00:19:48;99134.00;;;19.02;65.83
62800;BME280;48842;51.046;13.796;2023-08-07T00:22:14;99134.97;;;19.01;65.77
62800;BME280;48842;51.046;13.796;2023-08-07T00:24:39;99131.34;;;19.02;65.65
62800;BME280;48842;51.046;13.796;2023-08-07T00:27:05;99128.09;;;18.97;65.71
62800;BME280;48842;51.046;13.796;2023-08-07T00:29:31;99131.75;;;18.95;65.53
62800;BME280;48842;51.046;13.796;2023-08-07T00:31:57;99130.09;;;18.92;65.65
62800;BME280;48842;51.046;13.796;2023-08-07T00:34:23;99137.13;;;18.93;65.55
62800;BME280;48842;51.046;13.796;2023-08-07T00:36:48;99126.53;;;18.93;65.69
62800;BME280;48842;51.046;13.796;2023-08-07T00:39:13;99131.06;;;18.91;65.55
62800;BME280;48842;51.046;13.796;2023-08-07T00:41:38;99136.38;;;18.91;65.75
62800;BME280;48842;51.046;13.796;2023-08-07T00:44:04;99133.56;;;18.94;65.55
62800;BME280;48842;51.046;13.796;2023-08-07T00:46:29;99131.91;;;18.92;65.39
62800;BME280;48842;51.046;13.796;2023-08-07T00:48:55;99139.25;;;18.87;65.48
62800;BME280;48842;51.046;13.796;2023-08-07T00:51:21;99136.44;;;18.90;65.30
62800;BME280;48842;51.046;13.796;2023-08-07T00:53:48;99138.56;;;19.00;65.25
62800;BME280;48842;51.046;13.796;2023-08-07T00:56:13;99137.53;;;19.03;65.03
62800;BME280;48842;51.046;13.796;2023-08-07T00:58:39;99128.34;;;19.10;64.92
62800;BME280;48842;51.046;13.796;2023-08-07T01:01:05;99127.44;;;19.10;64.59
62800;BME280;48842;51.046;13.796;2023-08-07T01:03:30;99127.31;;;19.13;64.69
62800;BME280;48842;51.046;13.796;2023-08-07T01:05:56;99123.72;;;19.14;64.53
62800;BME280;48842;51.046;13.796;2023-08-07T01:08:21;99134.25;;;19.15;64.68
62800;BME280;48842;51.046;13.796;2023-08-07T01:10:59;99134.34;;;19.14;64.61
62800;BME280;48842;51.046;13.796;2023-08-07T01:13:37;99138.88;;;19.12;64.53
62800;BME280;48842;51.046;13.796;2023-08-07T01:16:11;99130.91;;;19.12;64.68
62800;BME280;48842;51.046;13.796;2023-08-07T01:18:39;99118.47;;;19.12;64.84
62800;BME280;48842;51.046;13.796;2023-08-07T01:21:05;99123.78;;;19.12;64.55
62800;BME280;48842;51.046;13.796;2023-08-07T01:23:31;99122.88;;;19.13;64.67
62800;BME280;48842;51.046;13.796;2023-08-07T01:25:56;99122.16;;;19.10;64.79
62800;BME280;48842;51.046;13.796;2023-08-07T01:28:27;99124.03;;;19.08;64.78
62800;BME280;48842;51.046;13.796;2023-08-07T01:30:59;99117.00;;;19.07;64.87
62800;BME280;48842;51.046;13.796;2023-08-07T01:33:35;99113.56;;;19.05;64.84
62800;BME280;48842;51.046;13.796;2023-08-07T01:36:07;99122.63;;;19.00;64.95
62800;BME280;48842;51.046;13.796;2023-08-07T01:38:34;99125.53;;;18.96;65.08
62800;BME280;48842;51.046;13.796;2023-08-07T01:41:00;99129.97;;;18.95;65.23
62800;BME280;48842;51.046;13.796;2023-08-07T01:43:27;99124.66;;;18.95;65.49
62800;BME280;48842;51.046;13.796;2023-08-07T01:45:52;99121.22;;;18.93;65.21
62800;BME280;48842;51.046;13.796;2023-08-07T01:48:17;99125.84;;;18.90;65.45
62800;BME280;48842;51.046;13.796;2023-08-07T01:50:43;99131.38;;;18.83;65.64
62800;BME280;48842;51.046;13.796;2023-08-07T01:53:08;99130.69;;;18.80;65.63
62800;BME280;48842;51.046;13.796;2023-08-07T01:55:33;99133.44;;;18.78;65.70
62800;BME280;48842;51.046;13.796;2023-08-07T01:57:58;99133.50;;;18.77;65.81
62800;BME280;48842;51.046;13.796;2023-08-07T02:00:24;99123.75;;;18.77;65.98
62800;BME280;48842;51.046;13.796;2023-08-07T02:02:49;99135.31;;;18.76;65.99
62800;BME280;48842;51.046;13.796;2023-08-07T02:05:15;99137.81;;;18.79;66.17
62800;BME280;48842;51.046;13.796;2023-08-07T02:07:40;99141.16;;;18.83;65.88
62800;BME280;48842;51.046;13.796;2023-08-07T02:10:06;99141.16;;;18.83;66.11
62800;BME280;48842;51.046;13.796;2023-08-07T02:12:31;99145.53;;;18.84;66.08
62800;BME280;48842;51.046;13.796;2023-08-07T02:15:00;99137.56;;;18.84;66.15
62800;BME280;48842;51.046;13.796;2023-08-07T02:17:29;99133.06;;;18.86;66.13
62800;BME280;48842;51.046;13.796;2023-08-07T02:19:55;99137.44;;;18.87;66.10
62800;BME280;48842;51.046;13.796;2023-08-07T02:22:20;99139.19;;;18.88;66.39
62800;BME280;48842;51.046;13.796;2023-08-07T02:24:46;99144.34;;;18.91;66.25
62800;BME280;48842;51.046;13.796;2023-08-07T02:27:11;99150.66;;;18.89;66.29
62800;BME280;48842;51.046;13.796;2023-08-07T02:29:36;99144.34;;;18.91;66.49
62800;BME280;48842;51.046;13.796;2023-08-07T02:32:02;99139.03;;;18.91;66.23
62800;BME280;48842;51.046;13.796;2023-08-07T02:34:28;99140.81;;;18.91;66.23
62800;BME280;48842;51.046;13.796;2023-08-07T02:36:53;99144.25;;;18.93;66.49
62800;BME280;48842;51.046;13.796;2023-08-07T02:39:19;99139.88;;;18.92;66.44
62800;BME280;48842;51.046;13.796;2023-08-07T02:41:44;99142.59;;;18.90;66.21
62800;BME280;48842;51.046;13.796;2023-08-07T02:44:09;99141.84;;;18.88;66.40
62800;BME280;48842;51.046;13.796;2023-08-07T02:46:34;99141.75;;;18.90;66.39
62800;BME280;48842;51.046;13.796;2023-08-07T02:49:01;99147.75;;;18.93;66.27
62800;BME280;48842;51.046;13.796;2023-08-07T02:51:26;99153.91;;;18.94;66.12
62800;BME280;48842;51.046;13.796;2023-08-07T02:53:51;99155.63;;;18.95;66.22
62800;BME280;48842;51.046;13.796;2023-08-07T02:56:17;99149.16;;;19.00;66.11
62800;BME280;48842;51.046;13.796;2023-08-07T02:58:42;99147.22;;;19.04;66.05
62800;BME280;48842;51.046;13.796;2023-08-07T03:01:07;99143.69;;;19.04;66.24
62800;BME280;48842;51.046;13.796;2023-08-07T03:03:33;99151.59;;;19.05;66.18
62800;BME280;48842;51.046;13.796;2023-08-07T03:05:58;99147.84;;;19.09;66.58
62800;BME280;48842;51.046;13.796;2023-08-07T03:08:23;99150.56;;;19.08;66.15
62800;BME280;48842;51.046;13.796;2023-08-07T03:10:57;99141.03;;;19.04;66.39
62800;BME280;48842;51.046;13.796;2023-08-07T03:13:23;99149.16;;;19.00;66.62
62800;BME280;48842;51.046;13.796;2023-08-07T03:15:49;99147.44;;;18.99;66.89
62800;BME280;48842;51.046;13.796;2023-08-07T03:18:16;99179.28;;;18.99;66.79
62800;BME280;48842;51.046;13.796;2023-08-07T03:20:41;99179.59;;;18.93;67.35
62800;BME280;48842;51.046;13.796;2023-08-07T03:23:09;99201.84;;;18.91;67.40
62800;BME280;48842;51.046;13.796;2023-08-07T03:25:34;99206.56;;;18.84;67.37
62800;BME280;48842;51.046;13.796;2023-08-07T03:27:59;99209.59;;;18.76;66.69
62800;BME280;48842;51.046;13.796;2023-08-07T03:30:25;99207.44;;;18.65;66.62
62800;BME280;48842;51.046;13.796;2023-08-07T03:32:50;99215.78;;;18.58;66.33
62800;BME280;48842;51.046;13.796;2023-08-07T03:35:15;99225.81;;;18.51;66.84
62800;BME280;48842;51.046;13.796;2023-08-07T03:37:41;99224.22;;;18.47;66.33
62800;BME280;48842;51.046;13.796;2023-08-07T03:40:07;99233.34;;;18.41;66.56
62800;BME280;48842;51.046;13.796;2023-08-07T03:42:32;99234.50;;;18.36;66.36
62800;BME280;48842;51.046;13.796;2023-08-07T03:44:57;99238.97;;;18.34;66.58
62800;BME280;48842;51.046;13.796;2023-08-07T03:47:23;99246.00;;;18.35;66.42
62800;BME280;48842;51.046;13.796;2023-08-07T03:49:49;99239.78;;;18.36;66.68
62800;BME280;48842;51.046;13.796;2023-08-07T03:52:14;99239.72;;;18.37;66.64
62800;BME280;48842;51.046;13.796;2023-08-07T03:54:39;99238.75;;;18.38;66.57
62800;BME280;48842;51.046;13.796;2023-08-07T03:57:05;99252.91;;;18.39;66.64
62800;BME280;48842;51.046;13.796;2023-08-07T03:59:30;99246.53;;;18.43;66.58
62800;BME280;48842;51.046;13.796;2023-08-07T04:01:55;99249.19;;;18.43;66.61
62800;BME280;48842;51.046;13.796;2023-08-07T04:04:20;99251.75;;;18.44;66.29
62800;BME280;48842;51.046;13.796;2023-08-07T04:06:46;99247.47;;;18.42;66.27
62800;BME280;48842;51.046;13.796;2023-08-07T04:09:11;99250.25;;;18.39;66.32
62800;BME280;48842;51.046;13.796;2023-08-07T04:11:36;99249.44;;;18.37;66.33
62800;BME280;48842;51.046;13.796;2023-08-07T04:14:02;99252.09;;;18.37;66.27
62800;BME280;48842;51.046;13.796;2023-08-07T04:16:27;99255.56;;;18.39;66.42
62800;BME280;48842;51.046;13.796;2023-08-07T04:18:52;99260.84;;;18.39;66.46
62800;BME280;48842;51.046;13.796;2023-08-07T04:21:18;99264.22;;;18.42;66.57
62800;BME280;48842;51.046;13.796;2023-08-07T04:23:43;99264.13;;;18.44;66.70
62800;BME280;48842;51.046;13.796;2023-08-07T04:26:09;99264.94;;;18.46;66.74
62800;BME280;48842;51.046;13.796;2023-08-07T04:28:34;99268.38;;;18.48;66.70
62800;BME280;48842;51.046;13.796;2023-08-07T04:30:59;99275.41;;;18.49;66.57
62800;BME280;48842;51.046;13.796;2023-08-07T04:33:25;99269.03;;;18.53;66.59
62800;BME280;48842;51.046;13.796;2023-08-07T04:35:50;99272.41;;;18.57;66.67
62800;BME280;48842;51.046;13.796;2023-08-07T04:38:16;99281.16;;;18.59;66.87
62800;BME280;48842;51.046;13.796;2023-08-07T04:40:49;99281.16;;;18.59;66.73
62800;BME280;48842;51.046;13.796;2023-08-07T04:43:16;99287.31;;;18.59;66.79
62800;BME280;48842;51.046;13.796;2023-08-07T04:45:41;99283.81;;;18.59;66.94
62800;BME280;48842;51.046;13.796;2023-08-07T04:48:08;99282.00;;;18.59;67.07
62800;BME280;48842;51.046;13.796;2023-08-07T04:50:33;99282.84;;;18.60;66.95
62800;BME280;48842;51.046;13.796;2023-08-07T04:52:59;99282.00;;;18.59;66.92
62800;BME280;48842;51.046;13.796;2023-08-07T04:55:25;99289.03;;;18.60;66.90
62800;BME280;48842;51.046;13.796;2023-08-07T04:57:50;99287.25;;;18.61;67.14
62800;BME280;48842;51.046;13.796;2023-08-07T05:00:19;99297.63;;;18.65;67.13
62800;BME280;48842;51.046;13.796;2023-08-07T05:02:44;99295.78;;;18.67;66.88
62800;BME280;48842;51.046;13.796;2023-08-07T05:05:09;99290.34;;;18.71;66.77
62800;BME280;48842;51.046;13.796;2023-08-07T05:07:35;99293.00;;;18.71;67.06
62800;BME280;48842;51.046;13.796;2023-08-07T05:10:02;99298.22;;;18.72;66.78
62800;BME280;48842;51.046;13.796;2023-08-07T05:12:27;99295.44;;;18.75;66.65
62800;BME280;48842;51.046;13.796;2023-08-07T05:14:52;99298.94;;;18.76;66.78
62800;BME280;48842;51.046;13.796;2023-08-07T05:17:18;99296.41;;;18.73;66.60
62800;BME280;48842;51.046;13.796;2023-08-07T05:19:43;99301.81;;;18.71;66.90
62800;BME280;48842;51.046;13.796;2023-08-07T05:22:08;99305.31;;;18.72;66.75
62800;BME280;48842;51.046;13.796;2023-08-07T05:24:33;99309.69;;;18.73;66.82
62800;BME280;48842;51.046;13.796;2023-08-07T05:27:05;99307.81;;;18.75;66.73
62800;BME280;48842;51.046;13.796;2023-08-07T05:29:30;99320.16;;;18.76;66.23
62800;BME280;48842;51.046;13.796;2023-08-07T05:31:56;99308.53;;;18.78;66.28
62800;BME280;48842;51.046;13.796;2023-08-07T05:34:21;99311.91;;;18.82;66.65
62800;BME280;48842;51.046;13.796;2023-08-07T05:36:46;99322.34;;;18.87;66.57
62800;BME280;48842;51.046;13.796;2023-08-07T05:39:11;99318.94;;;18.83;66.56
62800;BME280;48842;51.046;13.796;2023-08-07T05:41:37;99330.47;;;18.82;66.31
62800;BME280;48842;51.046;13.796;2023-08-07T05:44:03;99326.13;;;18.81;66.27
62800;BME280;48842;51.046;13.796;2023-08-07T05:46:30;99333.19;;;18.80;66.09
62800;BME280;48842;51.046;13.796;2023-08-07T05:48:55;99329.69;;;18.80;66.15
62800;BME280;48842;51.046;13.796;2023-08-07T05:51:21;99333.94;;;18.84;66.13
62800;BME280;48842;51.046;13.796;2023-08-07T05:53:46;99339.84;;;18.91;65.91
62800;BME280;48842;51.046;13.796;2023-08-07T05:56:11;99336.91;;;18.97;65.86
62800;BME280;48842;51.046;13.796;2023-08-07T05:58:37;99340.28;;;19.00;65.57
62800;BME280;48842;51.046;13.796;2023-08-07T06:01:02;99333.81;;;19.06;65.43
62800;BME280;48842;51.046;13.796;2023-08-07T06:03:27;99337.97;;;19.12;65.44
62800;BME280;48842;51.046;13.796;2023-08-07T06:05:53;99332.66;;;19.12;65.20
62800;BME280;48842;51.046;13.796;2023-08-07T06:08:18;99343.28;;;19.12;65.32
62800;BME280;48842;51.046;13.796;2023-08-07T06:10:43;99345.94;;;19.12;65.42
62800;BME280;48842;51.046;13.796;2023-08-07T06:13:09;99350.19;;;19.16;65.21
62800;BME280;48842;51.046;13.796;2023-08-07T06:15:34;99366.66;;;19.23;65.35
62800;BME280;48842;51.046;13.796;2023-08-07T06:17:59;99369.09;;;19.27;65.07
62800;BME280;48842;51.046;13.796;2023-08-07T06:20:25;99366.44;;;19.27;64.63
62800;BME280;48842;51.046;13.796;2023-08-07T06:22:50;99372.84;;;19.23;64.70
62800;BME280;48842;51.046;13.796;2023-08-07T06:25:15;99379.16;;;19.21;64.33
62800;BME280;48842;51.046;13.796;2023-08-07T06:27:40;99375.44;;;19.25;64.30
62800;BME280;48842;51.046;13.796;2023-08-07T06:30:06;99381.44;;;19.28;64.18
62800;BME280;48842;51.046;13.796;2023-08-07T06:32:31;99390.31;;;19.27;63.84
62800;BME280;48842;51.046;13.796;2023-08-07T06:34:57;99395.63;;;19.27;63.54
62800;BME280;48842;51.046;13.796;2023-08-07T06:37:23;99390.41;;;19.26;63.41
62800;BME280;48842;51.046;13.796;2023-08-07T06:39:48;99382.38;;;19.27;63.30
62800;BME280;48842;51.046;13.796;2023-08-07T06:42:13;99390.22;;;19.30;63.57
62800;BME280;48842;51.046;13.796;2023-08-07T06:44:38;99394.56;;;19.31;63.38
62800;BME280;48842;51.046;13.796;2023-08-07T06:47:04;99407.78;;;19.33;63.36
62800;BME280;48842;51.046;13.796;2023-08-07T06:49:29;99403.19;;;19.36;62.96
62800;BME280;48842;51.046;13.796;2023-08-07T06:51:57;99404.78;;;19.41;62.70
62800;BME280;48842;51.046;13.796;2023-08-07T06:54:22;99409.78;;;19.47;62.67
62800;BME280;48842;51.046;13.796;2023-08-07T06:56:47;99400.59;;;19.54;62.44
62800;BME280;48842;51.046;13.796;2023-08-07T06:59:12;99408.19;;;19.62;62.51
62800;BME280;48842;51.046;13.796;2023-08-07T07:01:37;99407.78;;;19.69;62.20
62800;BME280;48842;51.046;13.796;2023-08-07T07:04:03;99410.28;;;19.73;61.78
62800;BME280;48842;51.046;13.796;2023-08-07T07:06:28;99408.28;;;19.78;61.29
62800;BME280;48842;51.046;13.796;2023-08-07T07:08:54;99406.28;;;19.83;61.44
62800;BME280;48842;51.046;13.796;2023-08-07T07:11:20;99415.81;;;19.87;60.98
62800;BME280;48842;51.046;13.796;2023-08-07T07:13:47;99413.00;;;19.90;60.79
62800;BME280;48842;51.046;13.796;2023-08-07T07:16:12;99412.88;;;19.93;60.69
62800;BME280;48842;51.046;13.796;2023-08-07T07:18:38;99409.28;;;19.94;60.35
62800;BME280;48842;51.046;13.796;2023-08-07T07:21:05;99411.63;;;20.00;60.66
62800;BME280;48842;51.046;13.796;2023-08-07T07:23:30;99415.84;;;20.04;60.37
62800;BME280;48842;51.046;13.796;2023-08-07T07:25:56;99416.66;;;20.07;60.08
62800;BME280;48842;51.046;13.796;2023-08-07T07:28:22;99415.56;;;20.11;60.14
62800;BME280;48842;51.046;13.796;2023-08-07T07:30:49;99423.38;;;20.14;59.71
62800;BME280;48842;51.046;13.796;2023-08-07T07:33:14;99422.34;;;20.16;59.93
62800;BME280;48842;51.046;13.796;2023-08-07T07:35:39;99430.09;;;20.21;59.83
62800;BME280;48842;51.046;13.796;2023-08-07T07:38:06;99438.53;;;20.29;59.68
62800;BME280;48842;51.046;13.796;2023-08-07T07:40:31;99432.38;;;20.29;59.01
62800;BME280;48842;51.046;13.796;2023-08-07T07:42:56;99436.97;;;20.25;58.80
62800;BME280;48842;51.046;13.796;2023-08-07T07:45:21;99447.41;;;20.30;59.02
62800;BME280;48842;51.046;13.796;2023-08-07T07:47:47;99448.25;;;20.30;58.55
62800;BME280;48842;51.046;13.796;2023-08-07T07:50:12;99456.22;;;20.30;58.69
62800;BME280;48842;51.046;13.796;2023-08-07T07:52:38;99453.50;;;20.32;58.48
62800;BME280;48842;51.046;13.796;2023-08-07T07:55:04;99447.47;;;20.28;57.92
62800;BME280;48842;51.046;13.796;2023-08-07T07:57:30;99463.44;;;20.28;58.02
62800;BME280;48842;51.046;13.796;2023-08-07T07:59:55;99456.16;;;20.32;58.03
62800;BME280;48842;51.046;13.796;2023-08-07T08:02:21;99472.03;;;20.33;57.86
62800;BME280;48842;51.046;13.796;2023-08-07T08:04:49;99486.25;;;20.32;57.69
62800;BME280;48842;51.046;13.796;2023-08-07T08:07:14;99474.06;;;20.28;57.83
62800;BME280;48842;51.046;13.796;2023-08-07T08:09:40;99476.75;;;20.28;57.63
62800;BME280;48842;51.046;13.796;2023-08-07T08:12:05;99474.59;;;20.35;57.66
62800;BME280;48842;51.046;13.796;2023-08-07T08:14:31;99473.44;;;20.40;57.74
62800;BME280;48842;51.046;13.796;2023-08-07T08:16:56;99476.03;;;20.42;57.41
62800;BME280;48842;51.046;13.796;2023-08-07T08:19:21;99479.25;;;20.49;57.02
62800;BME280;48842;51.046;13.796;2023-08-07T08:21:47;99483.16;;;20.59;56.54
62800;BME280;48842;51.046;13.796;2023-08-07T08:24:12;99481.41;;;20.58;56.04
62800;BME280;48842;51.046;13.796;2023-08-07T08:26:37;99481.25;;;20.61;56.01
62800;BME280;48842;51.046;13.796;2023-08-07T08:29:03;99491.06;;;20.61;55.81
62800;BME280;48842;51.046;13.796;2023-08-07T08:31:29;99494.09;;;20.53;55.74
62800;BME280;48842;51.046;13.796;2023-08-07T08:33:55;99490.34;;;20.57;55.59
62800;BME280;48842;51.046;13.796;2023-08-07T08:36:20;99503.63;;;20.57;55.52
62800;BME280;48842;51.046;13.796;2023-08-07T08:38:45;99506.22;;;20.58;55.27
62800;BME280;48842;51.046;13.796;2023-08-07T08:41:13;99503.81;;;20.54;54.85
62800;BME280;48842;51.046;13.796;2023-08-07T08:43:40;99505.13;;;20.45;55.29
62800;BME280;48842;51.046;13.796;2023-08-07T08:46:06;99504.19;;;20.46;55.38
62800;BME280;48842;51.046;13.796;2023-08-07T08:48:34;99505.22;;;20.44;55.33
62800;BME280;48842;51.046;13.796;2023-08-07T08:51:01;99497.72;;;20.52;55.82
62800;BME280;48842;51.046;13.796;2023-08-07T08:53:28;99499.13;;;20.59;55.65
62800;BME280;48842;51.046;13.796;2023-08-07T08:55:54;99504.97;;;20.66;55.47
62800;BME280;48842;51.046;13.796;2023-08-07T08:58:20;99498.50;;;20.71;55.39
62800;BME280;48842;51.046;13.796;2023-08-07T09:00:45;99507.97;;;20.77;54.39
62800;BME280;48842;51.046;13.796;2023-08-07T09:03:11;99505.63;;;20.88;53.82
62800;BME280;48842;51.046;13.796;2023-08-07T09:05:37;99514.06;;;20.97;54.21
62800;BME280;48842;51.046;13.796;2023-08-07T09:08:02;99505.84;;;21.01;53.83
62800;BME280;48842;51.046;13.796;2023-08-07T09:10:29;99508.19;;;21.07;53.68
62800;BME280;48842;51.046;13.796;2023-08-07T09:13:00;99518.03;;;21.05;53.86
62800;BME280;48842;51.046;13.796;2023-08-07T09:15:27;99521.50;;;21.07;53.76
62800;BME280;48842;51.046;13.796;2023-08-07T09:17:55;99516.94;;;21.09;53.99
62800;BME280;48842;51.046;13.796;2023-08-07T09:20:20;99522.88;;;21.15;54.13
62800;BME280;48842;51.046;13.796;2023-08-07T09:22:46;99533.38;;;21.18;53.78
62800;BME280;48842;51.046;13.796;2023-08-07T09:25:12;99538.06;;;21.13;53.70
62800;BME280;48842;51.046;13.796;2023-08-07T09:27:40;99524.91;;;21.09;53.05
62800;BME280;48842;51.046;13.796;2023-08-07T09:30:07;99525.63;;;21.13;53.14
62800;BME280;48842;51.046;13.796;2023-08-07T09:32:35;99535.41;;;21.13;52.78
62800;BME280;48842;51.046;13.796;2023-08-07T09:35:02;99526.16;;;21.20;52.97
62800;BME280;48842;51.046;13.796;2023-08-07T09:37:29;99517.69;;;21.29;52.87
62800;BME280;48842;51.046;13.796;2023-08-07T09:39:54;99522.94;;;21.31;52.84
62800;BME280;48842;51.046;13.796;2023-08-07T09:42:20;99528.94;;;21.34;52.65
62800;BME280;48842;51.046;13.796;2023-08-07T09:44:46;99526.28;;;21.34;52.59
62800;BME280;48842;51.046;13.796;2023-08-07T09:47:15;99534.91;;;21.39;51.87
62800;BME280;48842;51.046;13.796;2023-08-07T09:49:42;99517.63;;;21.47;51.53
62800;BME280;48842;51.046;13.796;2023-08-07T09:52:08;99512.22;;;21.48;51.29
62800;BME280;48842;51.046;13.796;2023-08-07T09:54:35;99522.66;;;21.53;51.15
62800;BME280;48842;51.046;13.796;2023-08-07T09:57:01;99506.97;;;21.47;51.04
62800;BME280;48842;51.046;13.796;2023-08-07T09:59:27;99511.69;;;21.41;50.78
62800;BME280;48842;51.046;13.796;2023-08-07T10:01:56;99528.69;;;21.39;50.90
62800;BME280;48842;51.046;13.796;2023-08-07T10:04:22;99518.56;;;21.45;51.11
62800;BME280;48842;51.046;13.796;2023-08-07T10:06:48;99525.06;;;21.57;51.51
62800;BME280;48842;51.046;13.796;2023-08-07T10:09:13;99523.53;;;21.69;51.51
62800;BME280;48842;51.046;13.796;2023-08-07T10:11:38;99514.16;;;21.78;51.64
62800;BME280;48842;51.046;13.796;2023-08-07T10:14:05;99519.41;;;21.79;51.44
62800;BME280;48842;51.046;13.796;2023-08-07T10:16:33;99532.81;;;21.78;51.48
62800;BME280;48842;51.046;13.796;2023-08-07T10:19:04;99537.47;;;21.74;51.23
62800;BME280;48842;51.046;13.796;2023-08-07T10:21:29;99528.84;;;21.69;50.76
62800;BME280;48842;51.046;13.796;2023-08-07T10:23:56;99529.78;;;21.68;51.07
62800;BME280;48842;51.046;13.796;2023-08-07T10:26:23;99533.25;;;21.70;50.71
62800;BME280;48842;51.046;13.796;2023-08-07T10:28:51;99562.50;;;21.72;50.38
62800;BME280;48842;51.046;13.796;2023-08-07T10:31:20;99544.00;;;21.69;50.61
62800;BME280;48842;51.046;13.796;2023-08-07T10:33:46;99573.13;;;21.56;50.74
62800;BME280;48842;51.046;13.796;2023-08-07T10:36:11;99545.97;;;21.48;51.79
62800;BME280;48842;51.046;13.796;2023-08-07T10:38:37;99556.09;;;21.25;53.07
62800;BME280;48842;51.046;13.796;2023-08-07T10:41:13;99562.94;;;20.96;54.07
62800;BME280;48842;51.046;13.796;2023-08-07T10:43:43;99544.56;;;20.73;54.79
62800;BME280;48842;51.046;13.796;2023-08-07T10:46:11;99554.13;;;20.58;55.45
62800;BME280;48842;51.046;13.796;2023-08-07T10:48:44;99555.53;;;20.48;56.03
62800;BME280;48842;51.046;13.796;2023-08-07T10:51:14;99553.34;;;20.56;56.03
62800;BME280;48842;51.046;13.796;2023-08-07T10:53:45;99538.28;;;20.74;55.96
62800;BME280;48842;51.046;13.796;2023-08-07T10:56:16;99549.22;;;20.86;56.01
62800;BME280;48842;51.046;13.796;2023-08-07T10:58:41;99550.16;;;20.85;56.03
62800;BME280;48842;51.046;13.796;2023-08-07T11:01:39;99555.03;;;20.77;56.30
62800;BME280;48842;51.046;13.796;2023-08-07T11:04:12;99552.53;;;20.73;57.16
62800;BME280;48842;51.046;13.796;2023-08-07T11:06:39;99543.22;;;20.82;57.37
62800;BME280;48842;51.046;13.796;2023-08-07T11:09:06;99559.41;;;20.95;56.61
62800;BME280;48842;51.046;13.796;2023-08-07T11:11:46;99542.81;;;21.07;56.21
62800;BME280;48842;51.046;13.796;2023-08-07T11:14:17;99538.38;;;21.24;55.64
62800;BME280;48842;51.046;13.796;2023-08-07T11:16:44;99538.66;;;21.35;55.32
62800;BME280;48842;51.046;13.796;2023-08-07T11:19:11;99544.50;;;21.42;54.69
62800;BME280;48842;51.046;13.796;2023-08-07T11:21:37;99544.28;;;21.47;54.33
62800;BME280;48842;51.046;13.796;2023-08-07T11:24:03;99558.88;;;21.57;53.75
62800;BME280;48842;51.046;13.796;2023-08-07T11:26:28;99533.94;;;21.74;53.84
62800;BME280;48842;51.046;13.796;2023-08-07T11:28:54;99538.25;;;21.92;53.14
62800;BME280;48842;51.046;13.796;2023-08-07T11:31:21;99551.22;;;21.99;52.77
62800;BME280;48842;51.046;13.796;2023-08-07T11:33:49;99546.22;;;21.76;51.10
62800;BME280;48842;51.046;13.796;2023-08-07T11:36:15;99535.38;;;21.64;51.80
62800;BME280;48842;51.046;13.796;2023-08-07T11:38:41;99551.03;;;21.54;52.42
62800;BME280;48842;51.046;13.796;2023-08-07T11:41:11;99562.06;;;21.46;52.83
62800;BME280;48842;51.046;13.796;2023-08-07T11:43:38;99559.03;;;21.36;53.54
62800;BME280;48842;51.046;13.796;2023-08-07T11:46:05;99565.78;;;21.26;54.53
62800;BME280;48842;51.046;13.796;2023-08-07T11:48:35;99563.78;;;21.14;55.89
62800;BME280;48842;51.046;13.796;2023-08-07T11:51:02;99569.59;;;21.04;56.43
62800;BME280;48842;51.046;13.796;2023-08-07T11:53:33;99573.69;;;20.94;57.12
62800;BME280;48842;51.046;13.796;2023-08-07T11:56:03;99573.19;;;20.86;57.59
62800;BME280;48842;51.046;13.796;2023-08-07T11:58:41;99579.38;;;20.69;58.08
62800;BME280;48842;51.046;13.796;2023-08-07T12:01:10;99579.13;;;20.56;58.67
62800;BME280;48842;51.046;13.796;2023-08-07T12:03:37;99575.97;;;20.48;59.30
62800;BME280;48842;51.046;13.796;2023-08-07T12:06:07;99581.44;;;20.45;59.83
62800;BME280;48842;51.046;13.796;2023-08-07T12:08:37;99601.28;;;20.37;60.07
62800;BME280;48842;51.046;13.796;2023-08-07T12:11:05;99599.00;;;20.30;60.67
62800;BME280;48842;51.046;13.796;2023-08-07T12:13:31;99592.97;;;20.26;61.51
62800;BME280;48842;51.046;13.796;2023-08-07T12:15:58;99597.31;;;20.46;61.70
62800;BME280;48842;51.046;13.796;2023-08-07T12:18:26;99591.28;;;20.79;61.31
62800;BME280;48842;51.046;13.796;2023-08-07T12:20:54;99588.69;;;21.13;61.44
62800;BME280;48842;51.046;13.796;2023-08-07T12:23:21;99582.63;;;21.44;60.87
62800;BME280;48842;51.046;13.796;2023-08-07T12:25:47;99575.09;;;21.68;60.30
62800;BME280;48842;51.046;13.796;2023-08-07T12:28:15;99568.09;;;21.83;60.05
62800;BME280;48842;51.046;13.796;2023-08-07T12:30:44;99570.31;;;21.91;59.73
62800;BME280;48842;51.046;13.796;2023-08-07T12:33:10;99567.84;;;21.88;59.42
62800;BME280;48842;51.046;13.796;2023-08-07T12:35:35;99567.22;;;21.83;58.79
62800;BME280;48842;51.046;13.796;2023-08-07T12:38:01;99572.44;;;21.68;57.01
62800;BME280;48842;51.046;13.796;2023-08-07T12:40:28;99561.97;;;21.48;56.72
62800;BME280;48842;51.046;13.796;2023-08-07T12:42:53;99591.41;;;21.28;56.87
62800;BME280;48842;51.046;13.796;2023-08-07T12:45:18;99583.69;;;21.06;56.49